sensor_id;sensor_type;location;lat;lon;timestamp;pressure;altitude;pressure_sealevel;temperature;humidity
64827;BME280;51265;53.972;12.286;2024-03-23T00:54:56;99958.00;;;5.93;100.00
64827;BME280;51265;53.972;12.286;2024-03-23T00:57:22;99954.44;;;5.98;100.00
64827;BME280;51265;53.972;12.286;2024-03-23T00:59:48;99954.16;;;5.99;100.00
64827;BME280;51265;53.972;12.286;2024-03-23T01:02:14;99941.84;;;5.97;100.00
64827;BME280;51265;53.972;12.286;2024-03-23T01:04:40;99934.00;;;5.85;100.00
64827;BME280;51265;53.972;12.286;2024-03-23T01:07:07;99926.09;;;5.84;100.00
64827;BME280;51265;53.972;12.286;2024-03-23T01:09:33;99918.47;;;5.75;100.00
64827;BME280;51265;53.972;12.286;2024-03-23T01:11:59;99907.81;;;5.79;100.00
64827;BME280;51265;53.972;12.286;2024-03-23T01:14:26;99905.63;;;5.81;100.00
64827;BME280;51265;53.972;12.286;2024-03-23T01:16:52;99903.50;;;5.73;100.00
64827;BME280;51265;53.972;12.286;2024-03-23T01:19:18;99897.94;;;5.83;100.00
64827;BME280;51265;53.972;12.286;2024-03-23T01:21:44;99906.50;;;5.71;100.00
64827;BME280;51265;53.972;12.286;2024-03-23T01:24:11;99906.81;;;5.65;100.00
64827;BME280;51265;53.972;12.286;2024-03-23T01:26:37;99910.94;;;5.62;100.00
64827;BME280;51265;53.972;12.286;2024-03-23T01:29:03;99916.59;;;5.71;100.00
64827;BME280;51265;53.972;12.286;2024-03-23T01:31:30;99898.09;;;5.63;100.00
64827;BME280;51265;53.972;12.286;2024-03-23T01:33:56;99896.50;;;5.52;100.00
64827;BME280;51265;53.972;12.286;2024-03-23T01:36:22;99888.56;;;5.55;100.00
64827;BME280;51265;53.972;12.286;2024-03-23T01:38:49;99880.66;;;5.54;100.00
64827;BME280;51265;53.972;12.286;2024-03-23T01:41:15;99872.31;;;5.40;100.00
64827;BME280;51265;53.972;12.286;2024-03-23T01:43:41;99886.47;;;5.42;100.00
64827;BME280;51265;53.972;12.286;2024-03-23T01:46:07;99893.34;;;5.39;100.00
64827;BME280;51265;53.972;12.286;2024-03-23T01:48:34;99888.44;;;5.36;100.00
64827;BME280;51265;53.972;12.286;2024-03-23T01:51:00;99873.16;;;5.30;100.00
64827;BME280;51265;53.972;12.286;2024-03-23T01:53:26;99877.00;;;5.29;100.00
64827;BME280;51265;53.972;12.286;2024-03-23T01:55:53;99879.22;;;5.27;100.00
64827;BME280;51265;53.972;12.286;2024-03-23T01:58:20;99869.94;;;5.18;100.00
64827;BME280;51265;53.972;12.286;2024-03-23T02:00:46;99888.47;;;5.26;100.00
64827;BME280;51265;53.972;12.286;2024-03-23T02:05:50;99870.44;;;5.30;100.00
64827;BME280;51265;53.972;12.286;2024-03-23T02:08:20;99875.41;;;5.18;100.00
64827;BME280;51265;53.972;12.286;2024-03-23T02:10:47;99879.22;;;5.22;100.00
64827;BME280;51265;53.972;12.286;2024-03-23T02:13:14;99865.56;;;5.22;100.00
64827;BME280;51265;53.972;12.286;2024-03-23T02:15:40;99872.69;;;5.18;100.00
64827;BME280;51265;53.972;12.286;2024-03-23T02:18:10;99859.88;;;5.18;100.00
64827;BME280;51265;53.972;12.286;2024-03-23T02:20:36;99850.88;;;5.13;100.00
64827;BME280;51265;53.972;12.286;2024-03-23T02:23:04;99855.22;;;5.14;100.00
64827;BME280;51265;53.972;12.286;2024-03-23T02:25:32;99867.22;;;5.23;100.00
64827;BME280;51265;53.972;12.286;2024-03-23T02:27:59;99860.69;;;5.19;100.00
64827;BME280;51265;53.972;12.286;2024-03-23T02:30:26;99850.31;;;5.16;100.00
64827;BME280;51265;53.972;12.286;2024-03-23T02:32:52;99856.28;;;5.23;100.00
64827;BME280;51265;53.972;12.286;2024-03-23T02:35:19;99851.66;;;5.23;100.00
64827;BME280;51265;53.972;12.286;2024-03-23T02:37:46;99852.69;;;5.33;100.00
64827;BME280;51265;53.972;12.286;2024-03-23T02:40:13;99858.94;;;5.33;100.00
64827;BME280;51265;53.972;12.286;2024-03-23T02:42:39;99853.44;;;5.38;100.00
64827;BME280;51265;53.972;12.286;2024-03-23T02:45:05;99842.66;;;5.23;100.00
64827;BME280;51265;53.972;12.286;2024-03-23T02:47:32;99835.53;;;5.27;100.00
64827;BME280;51265;53.972;12.286;2024-03-23T02:49:58;99834.38;;;5.33;100.00
64827;BME280;51265;53.972;12.286;2024-03-23T02:52:25;99815.25;;;5.33;100.00
64827;BME280;51265;53.972;12.286;2024-03-23T02:54:51;99808.72;;;5.29;100.00
64827;BME280;51265;53.972;12.286;2024-03-23T02:57:17;99806.66;;;5.16;100.00
64827;BME280;51265;53.972;12.286;2024-03-23T02:59:44;99802.84;;;5.12;100.00
64827;BME280;51265;53.972;12.286;2024-03-23T03:02:11;99809.34;;;5.21;100.00
64827;BME280;51265;53.972;12.286;2024-03-23T03:04:37;99799.00;;;5.13;100.00
64827;BME280;51265;53.972;12.286;2024-03-23T03:07:04;99802.25;;;5.20;100.00
64827;BME280;51265;53.972;12.286;2024-03-23T03:09:30;99797.44;;;5.07;100.00
64827;BME280;51265;53.972;12.286;2024-03-23T03:11:56;99798.84;;;4.99;100.00
64827;BME280;51265;53.972;12.286;2024-03-23T03:14:22;99797.53;;;4.86;100.00
64827;BME280;51265;53.972;12.286;2024-03-23T03:16:49;99796.16;;;4.89;100.00
64827;BME280;51265;53.972;12.286;2024-03-23T03:19:15;99787.69;;;4.90;100.00
64827;BME280;51265;53.972;12.286;2024-03-23T03:21:42;99783.94;;;4.81;100.00
64827;BME280;51265;53.972;12.286;2024-03-23T03:24:08;99791.81;;;4.83;100.00
64827;BME280;51265;53.972;12.286;2024-03-23T03:26:34;99788.00;;;4.84;100.00
64827;BME280;51265;53.972;12.286;2024-03-23T03:29:02;99778.41;;;4.91;100.00
64827;BME280;51265;53.972;12.286;2024-03-23T03:31:29;99775.72;;;4.86;100.00
64827;BME280;51265;53.972;12.286;2024-03-23T03:33:55;99777.91;;;4.84;100.00
64827;BME280;51265;53.972;12.286;2024-03-23T03:36:21;99773.25;;;4.90;100.00
64827;BME280;51265;53.972;12.286;2024-03-23T03:38:47;99783.56;;;4.98;100.00
64827;BME280;51265;53.972;12.286;2024-03-23T03:41:14;99779.47;;;4.95;100.00
64827;BME280;51265;53.972;12.286;2024-03-23T03:43:40;99771.84;;;4.97;100.00
64827;BME280;51265;53.972;12.286;2024-03-23T03:46:07;99765.34;;;4.83;100.00
64827;BME280;51265;53.972;12.286;2024-03-23T03:48:34;99769.56;;;4.65;100.00
64827;BME280;51265;53.972;12.286;2024-03-23T03:51:00;99770.09;;;4.62;100.00
64827;BME280;51265;53.972;12.286;2024-03-23T03:53:26;99771.00;;;4.47;100.00
64827;BME280;51265;53.972;12.286;2024-03-23T03:55:53;99761.47;;;4.40;100.00
64827;BME280;51265;53.972;12.286;2024-03-23T03:58:19;99766.13;;;4.34;100.00
64827;BME280;51265;53.972;12.286;2024-03-23T04:00:45;99762.31;;;4.30;100.00
64827;BME280;51265;53.972;12.286;2024-03-23T04:03:11;99764.25;;;4.24;100.00
64827;BME280;51265;53.972;12.286;2024-03-23T04:05:37;99766.16;;;4.24;100.00
64827;BME280;51265;53.972;12.286;2024-03-23T04:08:07;99770.50;;;4.30;100.00
64827;BME280;51265;53.972;12.286;2024-03-23T04:10:34;99759.63;;;4.25;100.00
64827;BME280;51265;53.972;12.286;2024-03-23T04:13:00;99769.44;;;4.21;100.00
64827;BME280;51265;53.972;12.286;2024-03-23T04:15:27;99757.47;;;4.17;100.00
64827;BME280;51265;53.972;12.286;2024-03-23T04:17:53;99758.00;;;4.14;100.00
64827;BME280;51265;53.972;12.286;2024-03-23T04:20:19;99745.19;;;4.19;100.00
64827;BME280;51265;53.972;12.286;2024-03-23T04:22:46;99743.81;;;4.22;100.00
64827;BME280;51265;53.972;12.286;2024-03-23T04:25:13;99743.59;;;4.18;100.00
64827;BME280;51265;53.972;12.286;2024-03-23T04:27:39;99735.66;;;4.17;100.00
64827;BME280;51265;53.972;12.286;2024-03-23T04:30:07;99744.66;;;4.17;100.00
64827;BME280;51265;53.972;12.286;2024-03-23T04:32:37;99741.13;;;4.12;100.00
64827;BME280;51265;53.972;12.286;2024-03-23T04:35:04;99739.50;;;4.16;100.00
64827;BME280;51265;53.972;12.286;2024-03-23T04:37:36;99732.34;;;4.25;100.00
64827;BME280;51265;53.972;12.286;2024-03-23T04:40:03;99737.81;;;4.25;100.00
64827;BME280;51265;53.972;12.286;2024-03-23T04:42:31;99731.84;;;4.23;100.00
64827;BME280;51265;53.972;12.286;2024-03-23T04:44:58;99727.97;;;4.29;100.00
64827;BME280;51265;53.972;12.286;2024-03-23T04:47:24;99723.94;;;4.27;100.00
64827;BME280;51265;53.972;12.286;2024-03-23T04:49:50;99730.72;;;4.29;100.00
64827;BME280;51265;53.972;12.286;2024-03-23T04:52:17;99724.16;;;4.35;100.00
64827;BME280;51265;53.972;12.286;2024-03-23T04:54:43;99725.75;;;4.41;100.00
64827;BME280;51265;53.972;12.286;2024-03-23T04:57:11;99725.50;;;4.38;100.00
64827;BME280;51265;53.972;12.286;2024-03-23T04:59:37;99720.34;;;4.31;100.00
64827;BME280;51265;53.972;12.286;2024-03-23T05:02:04;99722.00;;;4.22;100.00
64827;BME280;51265;53.972;12.286;2024-03-23T05:04:30;99715.50;;;4.13;100.00
64827;BME280;51265;53.972;12.286;2024-03-23T05:06:58;99706.25;;;4.09;100.00
64827;BME280;51265;53.972;12.286;2024-03-23T05:09:25;99709.00;;;4.04;100.00
64827;BME280;51265;53.972;12.286;2024-03-23T05:11:56;99715.81;;;4.11;100.00
64827;BME280;51265;53.972;12.286;2024-03-23T05:14:23;99731.03;;;4.17;100.00
64827;BME280;51265;53.972;12.286;2024-03-23T05:16:49;99724.19;;;4.25;100.00
64827;BME280;51265;53.972;12.286;2024-03-23T05:19:15;99715.97;;;4.35;100.00
64827;BME280;51265;53.972;12.286;2024-03-23T05:21:42;99730.41;;;4.36;100.00
64827;BME280;51265;53.972;12.286;2024-03-23T05:24:08;99724.66;;;4.42;100.00
64827;BME280;51265;53.972;12.286;2024-03-23T05:26:35;99727.34;;;4.53;100.00
64827;BME280;51265;53.972;12.286;2024-03-23T05:29:02;99728.91;;;4.64;100.00
64827;BME280;51265;53.972;12.286;2024-03-23T05:31:31;99728.09;;;4.63;100.00
64827;BME280;51265;53.972;12.286;2024-03-23T05:33:58;99732.72;;;4.63;100.00
64827;BME280;51265;53.972;12.286;2024-03-23T05:36:24;99734.88;;;4.71;100.00
64827;BME280;51265;53.972;12.286;2024-03-23T05:38:50;99739.22;;;4.77;100.00
64827;BME280;51265;53.972;12.286;2024-03-23T05:41:17;99740.28;;;4.76;100.00
64827;BME280;51265;53.972;12.286;2024-03-23T05:43:43;99723.41;;;4.74;100.00
64827;BME280;51265;53.972;12.286;2024-03-23T05:46:09;99717.38;;;4.77;100.00
64827;BME280;51265;53.972;12.286;2024-03-23T05:48:36;99711.34;;;4.80;100.00
64827;BME280;51265;53.972;12.286;2024-03-23T05:51:03;99714.63;;;4.82;100.00
64827;BME280;51265;53.972;12.286;2024-03-23T05:53:29;99716.75;;;4.90;100.00
64827;BME280;51265;53.972;12.286;2024-03-23T05:56:03;99710.75;;;4.93;100.00
64827;BME280;51265;53.972;12.286;2024-03-23T05:58:33;99711.81;;;4.97;100.00
64827;BME280;51265;53.972;12.286;2024-03-23T06:01:02;99708.78;;;4.99;100.00
64827;BME280;51265;53.972;12.286;2024-03-23T06:03:29;99706.91;;;4.94;100.00
64827;BME280;51265;53.972;12.286;2024-03-23T06:05:55;99705.53;;;4.92;100.00
64827;BME280;51265;53.972;12.286;2024-03-23T06:08:22;99692.16;;;4.95;100.00
64827;BME280;51265;53.972;12.286;2024-03-23T06:10:50;99687.00;;;4.94;100.00
64827;BME280;51265;53.972;12.286;2024-03-23T06:13:17;99691.09;;;4.91;100.00
64827;BME280;51265;53.972;12.286;2024-03-23T06:15:44;99711.25;;;4.95;100.00
64827;BME280;51265;53.972;12.286;2024-03-23T06:18:11;99708.53;;;4.95;100.00
64827;BME280;51265;53.972;12.286;2024-03-23T06:20:38;99716.75;;;4.90;100.00
64827;BME280;51265;53.972;12.286;2024-03-23T06:23:05;99726.28;;;4.93;100.00
64827;BME280;51265;53.972;12.286;2024-03-23T06:25:31;99717.00;;;4.94;100.00
64827;BME280;51265;53.972;12.286;2024-03-23T06:27:58;99703.03;;;5.00;100.00
64827;BME280;51265;53.972;12.286;2024-03-23T06:30:29;99702.75;;;5.02;100.00
64827;BME280;51265;53.972;12.286;2024-03-23T06:32:55;99707.31;;;5.12;100.00
64827;BME280;51265;53.972;12.286;2024-03-23T06:35:21;99709.38;;;5.25;100.00
64827;BME280;51265;53.972;12.286;2024-03-23T06:37:48;99708.22;;;5.36;100.00
64827;BME280;51265;53.972;12.286;2024-03-23T06:40:14;99705.09;;;5.48;100.00
64827;BME280;51265;53.972;12.286;2024-03-23T06:42:42;99697.63;;;5.59;100.00
64827;BME280;51265;53.972;12.286;2024-03-23T06:45:08;99683.31;;;5.67;100.00
64827;BME280;51265;53.972;12.286;2024-03-23T06:47:35;99670.53;;;5.62;100.00
64827;BME280;51265;53.972;12.286;2024-03-23T06:50:03;99656.88;;;5.62;100.00
64827;BME280;51265;53.972;12.286;2024-03-23T06:52:29;99644.34;;;5.61;100.00
64827;BME280;51265;53.972;12.286;2024-03-23T06:54:57;99644.56;;;5.65;100.00
64827;BME280;51265;53.972;12.286;2024-03-23T06:57:24;99640.03;;;5.79;100.00
64827;BME280;51265;53.972;12.286;2024-03-23T06:59:50;99634.97;;;5.91;100.00
64827;BME280;51265;53.972;12.286;2024-03-23T07:02:17;99628.41;;;5.92;100.00
64827;BME280;51265;53.972;12.286;2024-03-23T07:04:43;99626.81;;;6.10;100.00
64827;BME280;51265;53.972;12.286;2024-03-23T07:07:09;99610.50;;;6.05;100.00
64827;BME280;51265;53.972;12.286;2024-03-23T07:09:35;99611.41;;;6.19;100.00
64827;BME280;51265;53.972;12.286;2024-03-23T07:12:03;99611.13;;;6.40;100.00
64827;BME280;51265;53.972;12.286;2024-03-23T07:14:30;99599.34;;;6.39;100.00
64827;BME280;51265;53.972;12.286;2024-03-23T07:16:57;99594.72;;;6.40;100.00
64827;BME280;51265;53.972;12.286;2024-03-23T07:19:23;99579.69;;;6.37;100.00
64827;BME280;51265;53.972;12.286;2024-03-23T07:21:50;99582.34;;;6.42;100.00
64827;BME280;51265;53.972;12.286;2024-03-23T07:24:17;99587.06;;;6.56;100.00
64827;BME280;51265;53.972;12.286;2024-03-23T07:26:43;99581.44;;;6.66;100.00
64827;BME280;51265;53.972;12.286;2024-03-23T07:29:09;99577.69;;;6.62;100.00
64827;BME280;51265;53.972;12.286;2024-03-23T07:31:36;99576.84;;;6.80;100.00
64827;BME280;51265;53.972;12.286;2024-03-23T07:34:03;99581.72;;;6.83;100.00
64827;BME280;51265;53.972;12.286;2024-03-23T07:36:29;99574.34;;;6.97;100.00
64827;BME280;51265;53.972;12.286;2024-03-23T07:38:57;99565.38;;;7.11;100.00
64827;BME280;51265;53.972;12.286;2024-03-23T07:41:23;99540.69;;;6.97;100.00
64827;BME280;51265;53.972;12.286;2024-03-23T07:43:49;99540.63;;;7.16;100.00
64827;BME280;51265;53.972;12.286;2024-03-23T07:46:16;99540.63;;;7.30;100.00
64827;BME280;51265;53.972;12.286;2024-03-23T07:48:43;99538.22;;;7.28;100.00
64827;BME280;51265;53.972;12.286;2024-03-23T07:51:10;99523.97;;;7.12;100.00
64827;BME280;51265;53.972;12.286;2024-03-23T07:53:37;99525.00;;;7.03;100.00
64827;BME280;51265;53.972;12.286;2024-03-23T07:56:08;99519.69;;;6.92;100.00
64827;BME280;51265;53.972;12.286;2024-03-23T07:58:34;99526.00;;;7.07;100.00
64827;BME280;51265;53.972;12.286;2024-03-23T08:01:05;99510.16;;;6.90;100.00
64827;BME280;51265;53.972;12.286;2024-03-23T08:03:38;99521.56;;;7.11;100.00
64827;BME280;51265;53.972;12.286;2024-03-23T08:06:17;99515.66;;;7.17;100.00
64827;BME280;51265;53.972;12.286;2024-03-23T08:08:47;99484.56;;;6.67;100.00
64827;BME280;51265;53.972;12.286;2024-03-23T08:11:15;99498.72;;;6.55;100.00
64827;BME280;51265;53.972;12.286;2024-03-23T08:13:42;99506.03;;;6.60;100.00
64827;BME280;51265;53.972;12.286;2024-03-23T08:16:08;99498.03;;;6.63;100.00
64827;BME280;51265;53.972;12.286;2024-03-23T08:18:34;99491.84;;;6.58;100.00
64827;BME280;51265;53.972;12.286;2024-03-23T08:21:03;99499.22;;;7.04;100.00
64827;BME280;51265;53.972;12.286;2024-03-23T08:23:32;99471.66;;;7.14;100.00
64827;BME280;51265;53.972;12.286;2024-03-23T08:26:01;99462.53;;;7.32;100.00
64827;BME280;51265;53.972;12.286;2024-03-23T08:28:27;99472.03;;;7.35;100.00
64827;BME280;51265;53.972;12.286;2024-03-23T08:30:54;99475.28;;;7.23;100.00
64827;BME280;51265;53.972;12.286;2024-03-23T08:33:22;99472.25;;;7.38;100.00
64827;BME280;51265;53.972;12.286;2024-03-23T08:38:24;99458.00;;;7.64;100.00
64827;BME280;51265;53.972;12.286;2024-03-23T08:41:01;99449.41;;;7.57;100.00
64827;BME280;51265;53.972;12.286;2024-03-23T08:43:29;99448.66;;;7.65;100.00
64827;BME280;51265;53.972;12.286;2024-03-23T08:46:15;99439.09;;;7.76;100.00
64827;BME280;51265;53.972;12.286;2024-03-23T08:48:44;99421.25;;;7.79;100.00
64827;BME280;51265;53.972;12.286;2024-03-23T08:51:15;99432.66;;;8.17;100.00
64827;BME280;51265;53.972;12.286;2024-03-23T08:53:42;99414.09;;;8.14;100.00
64827;BME280;51265;53.972;12.286;2024-03-23T08:56:09;99409.41;;;7.92;100.00
64827;BME280;51265;53.972;12.286;2024-03-23T08:58:37;99387.41;;;7.61;100.00
64827;BME280;51265;53.972;12.286;2024-03-23T09:01:11;99377.66;;;7.55;100.00
64827;BME280;51265;53.972;12.286;2024-03-23T09:03:39;99401.44;;;7.45;100.00
64827;BME280;51265;53.972;12.286;2024-03-23T09:06:13;99425.84;;;7.92;100.00
64827;BME280;51265;53.972;12.286;2024-03-23T09:08:40;99412.94;;;8.15;100.00
64827;BME280;51265;53.972;12.286;2024-03-23T09:11:07;99389.47;;;7.78;100.00
64827;BME280;51265;53.972;12.286;2024-03-23T09:13:36;99400.25;;;7.96;100.00
64827;BME280;51265;53.972;12.286;2024-03-23T09:16:04;99401.34;;;7.73;100.00
64827;BME280;51265;53.972;12.286;2024-03-23T09:18:32;99417.13;;;7.90;100.00
64827;BME280;51265;53.972;12.286;2024-03-23T09:20:59;99394.50;;;7.84;100.00
64827;BME280;51265;53.972;12.286;2024-03-23T09:23:26;99382.00;;;7.69;100.00
64827;BME280;51265;53.972;12.286;2024-03-23T09:25:52;99401.44;;;8.04;100.00
64827;BME280;51265;53.972;12.286;2024-03-23T09:28:19;99368.78;;;8.16;100.00
64827;BME280;51265;53.972;12.286;2024-03-23T09:30:45;99365.63;;;8.32;99.71
64827;BME280;51265;53.972;12.286;2024-03-23T09:33:12;99349.13;;;8.23;97.62
64827;BME280;51265;53.972;12.286;2024-03-23T09:35:39;99333.06;;;7.85;97.77
64827;BME280;51265;53.972;12.286;2024-03-23T09:38:06;99309.09;;;7.68;96.98
64827;BME280;51265;53.972;12.286;2024-03-23T09:40:40;99308.34;;;7.77;96.54
64827;BME280;51265;53.972;12.286;2024-03-23T09:43:09;99307.53;;;7.76;96.65
64827;BME280;51265;53.972;12.286;2024-03-23T09:45:40;99330.22;;;7.90;97.85
64827;BME280;51265;53.972;12.286;2024-03-23T09:48:11;99352.88;;;8.05;99.68
64827;BME280;51265;53.972;12.286;2024-03-23T09:50:42;99349.00;;;8.28;98.76
64827;BME280;51265;53.972;12.286;2024-03-23T09:53:10;99312.97;;;8.21;95.64
64827;BME280;51265;53.972;12.286;2024-03-23T09:55:44;99295.72;;;8.52;93.06
64827;BME280;51265;53.972;12.286;2024-03-23T09:58:15;99294.47;;;8.58;91.87
64827;BME280;51265;53.972;12.286;2024-03-23T10:00:43;99272.50;;;8.58;90.67
64827;BME280;51265;53.972;12.286;2024-03-23T10:03:10;99248.88;;;8.08;91.16
64827;BME280;51265;53.972;12.286;2024-03-23T10:05:37;99256.16;;;8.13;90.27
64827;BME280;51265;53.972;12.286;2024-03-23T10:10:43;99242.03;;;8.28;89.24
64827;BME280;51265;53.972;12.286;2024-03-23T10:13:09;99223.59;;;8.20;88.04
64827;BME280;51265;53.972;12.286;2024-03-23T10:15:36;99234.38;;;8.56;87.26
64827;BME280;51265;53.972;12.286;2024-03-23T10:18:18;99194.38;;;8.64;85.12
64827;BME280;51265;53.972;12.286;2024-03-23T10:23:33;99149.00;;;8.75;82.78
64827;BME280;51265;53.972;12.286;2024-03-23T10:26:22;99181.63;;;8.85;83.78
64827;BME280;51265;53.972;12.286;2024-03-23T10:31:31;99157.41;;;9.05;81.20
64827;BME280;51265;53.972;12.286;2024-03-23T10:33:57;99168.72;;;9.12;80.22
64827;BME280;51265;53.972;12.286;2024-03-23T10:36:24;99147.19;;;9.22;77.65
64827;BME280;51265;53.972;12.286;2024-03-23T10:38:54;99158.03;;;9.19;78.11
64827;BME280;51265;53.972;12.286;2024-03-23T10:41:22;99152.16;;;9.55;77.07
64827;BME280;51265;53.972;12.286;2024-03-23T10:43:49;99127.69;;;9.71;75.09
64827;BME280;51265;53.972;12.286;2024-03-23T10:46:15;99039.81;;;9.54;71.91
64827;BME280;51265;53.972;12.286;2024-03-23T10:48:42;99122.50;;;9.78;71.89
64827;BME280;51265;53.972;12.286;2024-03-23T10:51:10;99125.03;;;9.83;72.12
64827;BME280;51265;53.972;12.286;2024-03-23T10:53:36;99157.00;;;9.96;71.98
64827;BME280;51265;53.972;12.286;2024-03-23T10:56:06;99145.16;;;10.05;71.06
64827;BME280;51265;53.972;12.286;2024-03-23T10:58:38;99145.97;;;9.67;71.56
64827;BME280;51265;53.972;12.286;2024-03-23T11:01:05;99109.28;;;9.07;71.21
64827;BME280;51265;53.972;12.286;2024-03-23T11:03:39;99131.66;;;9.35;71.01
64827;BME280;51265;53.972;12.286;2024-03-23T11:06:07;99090.69;;;9.13;70.21
64827;BME280;51265;53.972;12.286;2024-03-23T11:08:38;99082.28;;;9.01;69.52
64827;BME280;51265;53.972;12.286;2024-03-23T11:11:25;99078.63;;;8.79;69.75
64827;BME280;51265;53.972;12.286;2024-03-23T11:13:53;99081.69;;;8.52;69.57
64827;BME280;51265;53.972;12.286;2024-03-23T11:16:27;99102.97;;;8.37;71.35
64827;BME280;51265;53.972;12.286;2024-03-23T11:19:37;99145.31;;;8.71;71.42
64827;BME280;51265;53.972;12.286;2024-03-23T11:22:04;99221.19;;;9.28;73.69
64827;BME280;51265;53.972;12.286;2024-03-23T11:24:34;99242.75;;;9.98;73.68
64827;BME280;51265;53.972;12.286;2024-03-23T11:27:00;99232.75;;;10.41;72.48
64827;BME280;51265;53.972;12.286;2024-03-23T11:29:29;99238.56;;;10.69;72.66
64827;BME280;51265;53.972;12.286;2024-03-23T11:31:56;99140.06;;;10.15;69.85
64827;BME280;51265;53.972;12.286;2024-03-23T11:34:23;99119.25;;;9.76;69.09
64827;BME280;51265;53.972;12.286;2024-03-23T11:36:50;99117.78;;;9.23;70.43
64827;BME280;51265;53.972;12.286;2024-03-23T11:39:20;99145.63;;;8.95;71.83
64827;BME280;51265;53.972;12.286;2024-03-23T11:41:53;99111.53;;;8.88;70.98
64827;BME280;51265;53.972;12.286;2024-03-23T11:44:22;99118.34;;;8.99;70.47
64827;BME280;51265;53.972;12.286;2024-03-23T11:46:50;99150.09;;;9.26;71.10
64827;BME280;51265;53.972;12.286;2024-03-23T11:49:23;99122.00;;;9.29;69.72
64827;BME280;51265;53.972;12.286;2024-03-23T11:51:51;99105.44;;;9.46;68.50
64827;BME280;51265;53.972;12.286;2024-03-23T11:54:22;99115.50;;;9.81;68.57
64827;BME280;51265;53.972;12.286;2024-03-23T11:57:03;99155.59;;;9.82;70.83
64827;BME280;51265;53.972;12.286;2024-03-23T11:59:35;99183.19;;;10.03;71.24
64827;BME280;51265;53.972;12.286;2024-03-23T12:02:09;99134.06;;;10.52;68.61
64827;BME280;51265;53.972;12.286;2024-03-23T12:04:37;99104.53;;;10.61;66.67
64827;BME280;51265;53.972;12.286;2024-03-23T12:07:18;99053.34;;;10.81;65.30
64827;BME280;51265;53.972;12.286;2024-03-23T12:09:46;99099.25;;;11.10;65.98
64827;BME280;51265;53.972;12.286;2024-03-23T12:12:19;99037.69;;;11.06;64.25
64827;BME280;51265;53.972;12.286;2024-03-23T12:15:01;99052.22;;;11.39;64.08
64827;BME280;51265;53.972;12.286;2024-03-23T12:17:27;99031.56;;;11.82;62.85
64827;BME280;51265;53.972;12.286;2024-03-23T12:19:54;98996.72;;;11.04;62.13
64827;BME280;51265;53.972;12.286;2024-03-23T12:22:21;99045.53;;;8.67;68.25
64827;BME280;51265;53.972;12.286;2024-03-23T12:24:47;99142.47;;;7.79;73.09
64827;BME280;51265;53.972;12.286;2024-03-23T12:27:14;99217.50;;;7.61;76.23
64827;BME280;51265;53.972;12.286;2024-03-23T12:29:41;99262.84;;;7.67;78.34
64827;BME280;51265;53.972;12.286;2024-03-23T12:32:09;99248.03;;;7.45;77.97
64827;BME280;51265;53.972;12.286;2024-03-23T12:34:35;99254.56;;;7.36;78.36
64827;BME280;51265;53.972;12.286;2024-03-23T12:37:01;99231.56;;;7.23;77.31
64827;BME280;51265;53.972;12.286;2024-03-23T12:39:27;99242.28;;;7.11;77.36
64827;BME280;51265;53.972;12.286;2024-03-23T12:41:54;99243.75;;;6.81;77.66
64827;BME280;51265;53.972;12.286;2024-03-23T12:44:20;99298.94;;;6.74;79.01
64827;BME280;51265;53.972;12.286;2024-03-23T12:46:47;99353.41;;;6.43;80.96
64827;BME280;51265;53.972;12.286;2024-03-23T12:49:14;99406.38;;;5.63;89.79
64827;BME280;51265;53.972;12.286;2024-03-23T12:51:48;99402.91;;;5.19;94.99
64827;BME280;51265;53.972;12.286;2024-03-23T12:54:19;99405.25;;;4.83;98.76
64827;BME280;51265;53.972;12.286;2024-03-23T12:56:45;99358.00;;;4.64;100.00
64827;BME280;51265;53.972;12.286;2024-03-23T12:59:12;99371.88;;;4.67;100.00
64827;BME280;51265;53.972;12.286;2024-03-23T13:01:39;99380.13;;;5.05;100.00
64827;BME280;51265;53.972;12.286;2024-03-23T13:04:06;99399.59;;;5.41;100.00
64827;BME280;51265;53.972;12.286;2024-03-23T13:06:32;99439.84;;;5.92;100.00
64827;BME280;51265;53.972;12.286;2024-03-23T13:09:01;99428.78;;;6.03;100.00
64827;BME280;51265;53.972;12.286;2024-03-23T13:11:27;99439.44;;;6.18;100.00
64827;BME280;51265;53.972;12.286;2024-03-23T13:13:55;99435.34;;;6.34;100.00
64827;BME280;51265;53.972;12.286;2024-03-23T13:16:21;99438.97;;;6.62;100.00
64827;BME280;51265;53.972;12.286;2024-03-23T13:18:48;99441.16;;;7.07;100.00
64827;BME280;51265;53.972;12.286;2024-03-23T13:21:14;99444.22;;;7.55;100.00
64827;BME280;51265;53.972;12.286;2024-03-23T13:23:41;99383.53;;;7.62;100.00
64827;BME280;51265;53.972;12.286;2024-03-23T13:26:08;99322.34;;;7.30;99.79
64827;BME280;51265;53.972;12.286;2024-03-23T13:28:36;99322.63;;;6.92;98.30
64827;BME280;51265;53.972;12.286;2024-03-23T13:31:03;99337.63;;;6.81;99.84
64827;BME280;51265;53.972;12.286;2024-03-23T13:33:30;99315.53;;;6.50;96.99
64827;BME280;51265;53.972;12.286;2024-03-23T13:35:58;99316.50;;;6.13;97.75
64827;BME280;51265;53.972;12.286;2024-03-23T13:38:26;99357.59;;;5.94;100.00
64827;BME280;51265;53.972;12.286;2024-03-23T13:40:54;99371.84;;;5.53;100.00
64827;BME280;51265;53.972;12.286;2024-03-23T13:43:20;99387.78;;;5.27;100.00
64827;BME280;51265;53.972;12.286;2024-03-23T13:45:49;99411.97;;;5.15;100.00
64827;BME280;51265;53.972;12.286;2024-03-23T13:48:16;99432.53;;;5.07;100.00
64827;BME280;51265;53.972;12.286;2024-03-23T13:50:42;99433.91;;;5.05;100.00
64827;BME280;51265;53.972;12.286;2024-03-23T13:53:08;99441.91;;;5.20;100.00
64827;BME280;51265;53.972;12.286;2024-03-23T13:55:35;99460.84;;;5.35;100.00
64827;BME280;51265;53.972;12.286;2024-03-23T13:58:02;99475.84;;;5.57;100.00
64827;BME280;51265;53.972;12.286;2024-03-23T14:00:28;99471.41;;;5.42;100.00
64827;BME280;51265;53.972;12.286;2024-03-23T14:02:54;99474.19;;;5.37;100.00